Time;durP1;ratioP1;P1;durP2;ratioP2;P2;SDS_P1;SDS_P2;PMS_P1;PMS_P2;Temp;Humidity;BMP_temperature;BMP_pressure;BME280_temperature;BME280_humidity;BME280_pressure;Samples;Min_cycle;Max_cycle;Signal;HPM_P1;HPM_P2
2021/04/26 00:02:21;;;;;;;0.30;0.30;;;21.10;44.40;;;;;;6318424;28;20084;-62
2021/04/26 00:05:21;;;;;;;0.20;0.20;;;21.10;44.40;;;;;;6319020;28;20451;-62
2021/04/26 00:08:22;;;;;;;0.47;0.30;;;21.00;44.30;;;;;;6318096;28;20103;-62
2021/04/26 00:11:22;;;;;;;0.43;0.20;;;21.00;44.30;;;;;;6318606;28;20389;-62
2021/04/26 00:14:23;;;;;;;0.50;0.30;;;21.00;44.30;;;;;;6318538;28;20035;-62
2021/04/26 00:17:23;;;;;;;0.90;0.30;;;21.00;44.30;;;;;;6317762;28;20541;-62
2021/04/26 00:20:27;;;;;;;0.60;0.30;;;21.00;44.30;;;;;;6317836;28;20066;-62
2021/04/26 00:23:28;;;;;;;2.55;0.40;;;21.10;44.50;;;;;;6318323;28;20020;-62
2021/04/26 00:26:28;;;;;;;0.30;0.20;;;21.10;44.40;;;;;;6318210;28;20024;-62
2021/04/26 00:29:29;;;;;;;0.40;0.25;;;21.00;44.30;;;;;;6317795;28;20032;-62
2021/04/26 00:32:29;;;;;;;0.40;0.30;;;21.00;44.20;;;;;;6318428;28;20028;-62
2021/04/26 00:35:30;;;;;;;0.47;0.40;;;21.00;44.30;;;;;;6317723;28;20097;-63
2021/04/26 00:38:30;;;;;;;0.80;0.40;;;21.10;44.40;;;;;;6316891;28;20064;-62
2021/04/26 00:41:31;;;;;;;0.73;0.30;;;21.10;44.30;;;;;;6317667;28;20024;-63
2021/04/26 00:44:31;;;;;;;0.95;0.30;;;21.10;44.30;;;;;;6317741;28;20467;-62
2021/04/26 00:47:32;;;;;;;0.20;0.20;;;21.00;44.20;;;;;;6317414;28;20423;-62
2021/04/26 00:50:33;;;;;;;0.20;0.20;;;21.00;44.30;;;;;;6313522;28;20059;-63
2021/04/26 00:53:35;;;;;;;0.63;0.38;;;21.00;44.30;;;;;;6309791;28;20409;-62
2021/04/26 00:56:35;;;;;;;0.20;0.20;;;21.10;44.30;;;;;;6316098;28;20047;-62
2021/04/26 00:59:36;;;;;;;0.20;0.20;;;21.00;44.30;;;;;;6316604;28;20017;-62
2021/04/26 01:02:37;;;;;;;0.40;0.30;;;21.10;44.40;;;;;;6316792;28;20482;-62
2021/04/26 01:05:37;;;;;;;0.13;0.13;;;21.00;44.30;;;;;;6316849;28;20024;-62
2021/04/26 01:08:39;;;;;;;0.30;0.28;;;21.00;44.30;;;;;;6316974;28;20056;-64
2021/04/26 01:12:08;;;;;;;0.20;0.20;;;21.00;44.20;;;;;;6316762;28;20467;-63
2021/04/26 01:15:17;;;;;;;0.32;0.30;;;21.00;44.30;;;;;;6316999;28;20036;-64
2021/04/26 01:18:48;;;;;;;0.70;0.40;;;21.00;44.30;;;;;;6316964;28;20390;-64
2021/04/26 01:22:21;;;;;;;0.75;0.20;;;21.00;44.30;;;;;;6316426;28;20032;-63
2021/04/26 01:25:23;;;;;;;1.17;0.50;;;21.00;44.30;;;;;;6317061;28;20068;-64
2021/04/26 01:28:50;;;;;;;0.30;0.30;;;21.00;44.30;;;;;;6317217;28;20058;-64
2021/04/26 01:32:18;;;;;;;0.60;0.30;;;21.00;44.20;;;;;;6316206;28;20031;-62
2021/04/26 01:35:21;;;;;;;0.13;0.13;;;21.00;44.30;;;;;;6316884;28;20043;-63
2021/04/26 01:38:27;;;;;;;0.50;0.40;;;21.00;44.30;;;;;;6316158;28;20020;-62
2021/04/26 01:41:29;;;;;;;0.20;0.20;;;21.00;44.20;;;;;;6316041;28;20407;-62
2021/04/26 01:44:30;;;;;;;0.47;0.30;;;21.00;44.30;;;;;;6316407;28;20028;-62
2021/04/26 01:47:34;;;;;;;0.70;0.30;;;21.00;44.20;;;;;;6315686;28;20016;-63
2021/04/26 01:50:35;;;;;;;0.70;0.30;;;21.00;44.30;;;;;;6312775;28;20099;-62
2021/04/26 01:53:39;;;;;;;0.35;0.30;;;21.00;44.20;;;;;;6314817;28;20111;-62
2021/04/26 01:56:40;;;;;;;0.40;0.32;;;21.00;44.90;;;;;;6315771;28;20505;-63
2021/04/26 01:59:41;;;;;;;0.55;0.35;;;21.00;44.20;;;;;;6315970;28;20059;-63
2021/04/26 02:02:43;;;;;;;0.60;0.43;;;21.00;44.20;;;;;;6316055;28;20024;-63
2021/04/26 02:05:44;;;;;;;0.35;0.30;;;21.00;44.30;;;;;;6316370;28;20024;-63
2021/04/26 02:08:45;;;;;;;0.30;0.30;;;21.00;44.30;;;;;;6314880;28;20035;-63
2021/04/26 02:11:46;;;;;;;0.55;0.43;;;21.00;44.30;;;;;;6315782;28;20034;-62
2021/04/26 02:14:46;;;;;;;0.60;0.28;;;21.00;44.30;;;;;;6316396;28;20085;-62
2021/04/26 02:17:47;;;;;;;0.40;0.30;;;21.00;44.30;;;;;;6315381;28;20056;-63
2021/04/26 02:20:48;;;;;;;0.30;0.30;;;21.00;44.20;;;;;;6315864;28;20024;-62
2021/04/26 02:23:49;;;;;;;0.75;0.40;;;21.00;44.30;;;;;;6315910;28;20039;-62
2021/04/26 02:26:50;;;;;;;0.28;0.20;;;21.00;44.30;;;;;;6315176;28;20028;-62
2021/04/26 02:29:52;;;;;;;0.50;0.38;;;21.00;44.20;;;;;;6316437;28;20032;-62
2021/04/26 02:33:04;;;;;;;0.20;0.20;;;21.00;44.20;;;;;;6314745;28;20020;-62
2021/04/26 02:36:14;;;;;;;0.63;0.40;;;21.00;44.30;;;;;;6315675;28;20039;-62
2021/04/26 02:39:15;;;;;;;0.20;0.20;;;21.00;44.30;;;;;;6315489;28;20482;-62
2021/04/26 02:42:17;;;;;;;0.40;0.30;;;21.00;44.20;;;;;;6315641;28;20060;-62
2021/04/26 02:45:25;;;;;;;1.52;0.40;;;21.00;44.30;;;;;;6315524;28;20032;-62
2021/04/26 02:48:26;;;;;;;0.35;0.25;;;21.00;44.20;;;;;;6314716;28;20470;-64
2021/04/26 02:51:32;;;;;;;0.30;0.30;;;21.00;44.20;;;;;;6309839;28;20119;-64
2021/04/26 02:54:34;;;;;;;0.50;0.30;;;21.00;44.20;;;;;;6315155;28;20474;-64
2021/04/26 02:57:35;;;;;;;0.28;0.28;;;21.00;44.20;;;;;;6315225;28;20081;-62
2021/04/26 03:00:36;;;;;;;0.20;0.20;;;21.00;44.20;;;;;;6315827;28;20020;-63
2021/04/26 03:03:39;;;;;;;0.30;0.30;;;21.00;44.30;;;;;;6315128;28;20020;-62
2021/04/26 03:06:39;;;;;;;0.30;0.20;;;21.00;44.20;;;;;;6315309;28;20429;-62
2021/04/26 03:09:41;;;;;;;0.82;0.30;;;21.00;44.20;;;;;;6315161;28;20099;-63
2021/04/26 03:12:45;;;;;;;0.50;0.38;;;21.00;44.20;;;;;;6314848;28;20035;-62
2021/04/26 03:15:46;;;;;;;0.45;0.30;;;21.00;44.20;;;;;;6315465;28;20111;-62
2021/04/26 03:18:47;;;;;;;0.70;0.30;;;21.00;44.20;;;;;;6315203;28;20457;-62
2021/04/26 03:21:49;;;;;;;0.68;0.40;;;21.00;44.20;;;;;;6317900;28;20032;-62
2021/04/26 03:24:50;;;;;;;0.20;0.20;;;21.00;44.20;;;;;;6319265;28;20089;-62
2021/04/26 03:27:54;;;;;;;0.30;0.30;;;21.00;44.20;;;;;;6319985;28;20017;-62
2021/04/26 03:31:00;;;;;;;0.20;0.20;;;21.00;44.20;;;;;;6319841;28;20608;-62
2021/04/26 03:34:01;;;;;;;0.20;0.20;;;21.00;44.30;;;;;;6319202;28;20104;-62
2021/04/26 03:37:01;;;;;;;0.63;0.38;;;21.00;44.20;;;;;;6318813;28;20032;-62
2021/04/26 03:40:02;;;;;;;0.40;0.30;;;21.00;44.20;;;;;;6319265;28;20363;-63
2021/04/26 03:43:03;;;;;;;0.43;0.20;;;21.00;44.30;;;;;;6319378;28;20055;-63
2021/04/26 03:46:04;;;;;;;0.40;0.38;;;21.00;44.20;;;;;;6319153;28;20039;-62
2021/04/26 03:49:04;;;;;;;0.20;0.20;;;21.00;44.30;;;;;;6318746;28;20044;-62
2021/04/26 03:52:06;;;;;;;0.47;0.30;;;21.00;44.20;;;;;;6306492;28;20051;-62
2021/04/26 03:55:08;;;;;;;0.50;0.30;;;21.00;44.20;;;;;;6318644;28;20028;-63
2021/04/26 03:58:10;;;;;;;0.20;0.20;;;21.00;44.20;;;;;;6318293;28;20035;-62
2021/04/26 04:01:11;;;;;;;0.63;0.40;;;21.00;44.20;;;;;;6318901;28;20028;-62
2021/04/26 04:04:12;;;;;;;0.50;0.25;;;21.00;44.20;;;;;;6318303;28;20040;-62
2021/04/26 04:07:12;;;;;;;0.30;0.30;;;21.00;44.20;;;;;;6318649;28;20089;-62
2021/04/26 04:10:14;;;;;;;0.30;0.30;;;21.00;44.20;;;;;;6318200;28;20028;-62
2021/04/26 04:13:15;;;;;;;0.30;0.30;;;21.00;44.30;;;;;;6318936;28;20522;-62
2021/04/26 04:16:15;;;;;;;0.32;0.30;;;21.00;44.30;;;;;;6318433;28;20037;-63
2021/04/26 04:19:16;;;;;;;0.60;0.20;;;20.90;44.20;;;;;;6318432;28;20024;-63
2021/04/26 04:22:16;;;;;;;0.30;0.30;;;20.90;44.20;;;;;;6318396;28;20032;-64
2021/04/26 04:25:17;;;;;;;1.55;0.40;;;20.90;44.30;;;;;;6318875;28;20054;-64
2021/04/26 04:28:18;;;;;;;0.57;0.30;;;20.90;44.30;;;;;;6317506;28;20040;-64
2021/04/26 04:31:19;;;;;;;0.55;0.40;;;20.90;44.40;;;;;;6317743;28;20047;-64
2021/04/26 04:34:19;;;;;;;0.20;0.20;;;20.90;44.30;;;;;;6317834;28;20080;-64
2021/04/26 04:37:20;;;;;;;0.82;0.30;;;20.90;44.40;;;;;;6318108;28;20086;-64
2021/04/26 04:40:20;;;;;;;0.60;0.22;;;20.90;44.40;;;;;;6317515;28;20035;-64
2021/04/26 04:43:21;;;;;;;1.27;0.30;;;20.90;44.40;;;;;;6317416;28;20073;-63
2021/04/26 04:46:22;;;;;;;0.63;0.25;;;20.90;44.30;;;;;;6317550;28;20193;-63
2021/04/26 04:49:23;;;;;;;0.20;0.20;;;20.90;44.30;;;;;;6317295;28;20063;-63
2021/04/26 04:52:23;;;;;;;1.05;0.52;;;20.90;44.30;;;;;;6310131;28;20050;-62
2021/04/26 04:55:24;;;;;;;0.38;0.25;;;20.90;44.30;;;;;;6317516;28;20035;-62
2021/04/26 04:58:25;;;;;;;0.43;0.25;;;20.90;44.30;;;;;;6317015;28;20099;-62
2021/04/26 05:01:25;;;;;;;0.32;0.30;;;20.90;44.40;;;;;;6317044;28;20039;-62
2021/04/26 05:04:26;;;;;;;0.45;0.30;;;20.90;44.30;;;;;;6317242;28;20093;-62
2021/04/26 05:07:26;;;;;;;0.75;0.30;;;20.90;44.40;;;;;;6317513;28;20421;-62
2021/04/26 05:10:27;;;;;;;0.30;0.30;;;20.90;44.30;;;;;;6317289;28;20051;-63
2021/04/26 05:13:28;;;;;;;0.30;0.30;;;20.90;44.30;;;;;;6317353;28;20208;-63
2021/04/26 05:16:30;;;;;;;1.38;0.38;;;20.90;44.40;;;;;;6316385;28;20051;-63
2021/04/26 05:19:32;;;;;;;0.50;0.30;;;20.90;44.30;;;;;;6316697;28;20070;-63
2021/04/26 05:22:34;;;;;;;0.70;0.40;;;20.90;44.40;;;;;;6316998;28;20534;-63
2021/04/26 05:25:35;;;;;;;0.90;0.30;;;20.90;44.40;;;;;;6316263;28;20024;-62
2021/04/26 05:28:36;;;;;;;0.38;0.30;;;20.90;44.40;;;;;;6316377;28;20031;-62
2021/04/26 05:31:36;;;;;;;0.93;0.35;;;20.90;44.30;;;;;;6316269;28;20020;-62
2021/04/26 05:34:37;;;;;;;0.80;0.50;;;20.90;44.40;;;;;;6316087;28;20024;-62
2021/04/26 05:37:37;;;;;;;0.35;0.30;;;20.90;44.30;;;;;;6316131;28;20034;-62
2021/04/26 05:40:39;;;;;;;0.35;0.28;;;20.90;44.30;;;;;;6316512;28;20066;-64
2021/04/26 05:43:39;;;;;;;1.48;0.40;;;20.90;44.40;;;;;;6315859;28;20162;-64
2021/04/26 05:46:40;;;;;;;0.28;0.20;;;20.90;44.40;;;;;;6316469;28;20442;-62
2021/04/26 05:49:40;;;;;;;0.40;0.22;;;20.90;44.50;;;;;;6316034;28;20051;-62
2021/04/26 05:52:41;;;;;;;0.20;0.20;;;20.90;44.40;;;;;;6310916;28;20111;-62
2021/04/26 05:55:41;;;;;;;0.50;0.30;;;20.90;44.30;;;;;;6316021;28;20032;-62
2021/04/26 05:58:42;;;;;;;1.38;0.30;;;20.90;44.40;;;;;;6291050;28;20406;-62
2021/04/26 06:01:42;;;;;;;1.23;0.52;;;20.90;43.80;;;;;;6310082;28;20119;-62
2021/04/26 06:04:43;;;;;;;2.47;0.65;;;20.90;42.10;;;;;;6312486;28;20032;-62
2021/04/26 06:07:43;;;;;;;1.75;0.80;;;20.90;42.00;;;;;;6316748;28;20046;-62
2021/04/26 06:10:45;;;;;;;9.02;0.82;;;20.90;42.10;;;;;;6316984;28;20069;-62
2021/04/26 06:13:45;;;;;;;0.98;0.50;;;20.90;42.50;;;;;;6316686;28;20546;-63
2021/04/26 06:16:46;;;;;;;6.20;0.65;;;20.90;43.20;;;;;;6313751;28;20040;-62
2021/04/26 06:19:46;;;;;;;3.75;1.23;;;20.90;43.40;;;;;;6303185;28;20089;-68
2021/04/26 06:22:47;;;;;;;2.92;0.80;;;20.90;43.20;;;;;;6314824;28;20111;-62
2021/04/26 06:32:54;;;;;;;6.07;0.60;;;21.10;43.60;;;;;;7149112;22;20069;-69
2021/04/26 06:35:55;;;;;;;2.80;0.60;;;21.10;43.30;;;;;;6236789;28;20410;-72
2021/04/26 06:38:55;;;;;;;2.20;0.57;;;21.10;43.50;;;;;;6241802;28;20025;-72
2021/04/26 06:41:57;;;;;;;16.40;1.00;;;21.20;43.70;;;;;;6227054;28;20029;-72
2021/04/26 06:44:57;;;;;;;5.07;0.90;;;21.20;43.60;;;;;;6238800;28;20026;-70
2021/04/26 06:47:58;;;;;;;2.60;0.60;;;21.10;43.40;;;;;;6227611;28;20053;-70
2021/04/26 06:50:59;;;;;;;2.33;0.68;;;21.20;43.70;;;;;;6233071;28;20040;-69
2021/04/26 06:53:59;;;;;;;3.00;0.60;;;21.10;44.30;;;;;;6251313;28;20025;-69
2021/04/26 06:57:00;;;;;;;2.38;0.60;;;21.10;43.60;;;;;;6242352;28;20041;-69
2021/04/26 07:00:00;;;;;;;2.13;0.68;;;21.10;43.70;;;;;;6242835;28;20076;-69
2021/04/26 07:03:01;;;;;;;2.42;0.50;;;21.10;43.70;;;;;;6246335;28;20367;-69
2021/04/26 07:06:02;;;;;;;2.25;0.50;;;21.10;43.60;;;;;;6241449;28;20089;-71
2021/04/26 07:09:04;;;;;;;2.78;0.88;;;21.00;43.60;;;;;;6258001;28;20036;-69
2021/04/26 07:12:05;;;;;;;1.17;0.60;;;21.00;43.60;;;;;;6254241;28;20025;-69
2021/04/26 07:15:07;;;;;;;2.05;0.57;;;21.00;43.60;;;;;;6240820;28;20542;-69
2021/04/26 07:18:08;;;;;;;1.63;0.55;;;21.00;43.50;;;;;;6249971;28;20557;-69
2021/04/26 07:21:09;;;;;;;1.67;0.50;;;21.00;43.70;;;;;;6272238;28;20071;-69
2021/04/26 07:24:10;;;;;;;5.28;0.60;;;21.10;43.90;;;;;;6255423;28;20040;-69
2021/04/26 07:27:11;;;;;;;1.77;0.52;;;21.00;43.70;;;;;;6230669;28;20099;-69
2021/04/26 07:30:12;;;;;;;1.38;0.43;;;21.00;43.70;;;;;;6246000;28;20048;-69
2021/04/26 07:33:12;;;;;;;1.27;0.50;;;21.00;43.60;;;;;;6231347;28;20061;-69
2021/04/26 07:36:13;;;;;;;0.65;0.40;;;21.00;43.60;;;;;;6238982;28;20033;-69
2021/04/26 07:39:15;;;;;;;2.55;0.60;;;21.00;43.60;;;;;;6247393;28;20118;-69
2021/04/26 07:42:15;;;;;;;2.55;0.38;;;21.00;43.60;;;;;;6270870;28;20033;-69
2021/04/26 07:45:22;;;;;;;1.38;0.50;;;21.00;43.60;;;;;;6247018;28;20029;-69
2021/04/26 07:48:22;;;;;;;3.47;0.43;;;21.00;43.80;;;;;;6238036;28;20056;-69
2021/04/26 07:51:23;;;;;;;3.65;0.50;;;21.00;43.70;;;;;;6248061;28;20029;-69
2021/04/26 07:54:24;;;;;;;1.92;0.45;;;21.00;43.70;;;;;;6253224;28;20087;-69
2021/04/26 07:57:25;;;;;;;0.73;0.50;;;21.00;43.80;;;;;;6253425;28;20033;-69
2021/04/26 08:00:26;;;;;;;0.80;0.38;;;21.00;43.70;;;;;;6239358;28;20056;-69
2021/04/26 08:03:27;;;;;;;4.53;0.60;;;21.00;43.70;;;;;;6244941;28;20017;-70
2021/04/26 08:06:27;;;;;;;1.75;0.55;;;21.00;43.60;;;;;;6243817;28;20500;-69
2021/04/26 08:09:29;;;;;;;1.70;0.60;;;21.00;43.40;;;;;;6239163;28;20030;-69
2021/04/26 08:12:29;;;;;;;2.28;0.50;;;21.00;43.30;;;;;;6256730;28;20040;-70
2021/04/26 08:15:30;;;;;;;3.65;0.50;;;21.00;43.50;;;;;;6248712;28;20037;-70
2021/04/26 08:18:31;;;;;;;8.70;0.82;;;21.00;43.60;;;;;;6249786;28;20470;-69
2021/04/26 08:21:31;;;;;;;4.00;0.82;;;21.00;43.70;;;;;;6239649;28;20341;-69
2021/04/26 08:24:32;;;;;;;4.95;0.73;;;21.00;43.80;;;;;;6238813;28;20388;-69
2021/04/26 08:27:32;;;;;;;5.57;0.52;;;21.00;43.70;;;;;;6236483;28;20153;-69
2021/04/26 08:30:33;;;;;;;1.95;0.47;;;21.10;43.80;;;;;;6249403;28;20029;-69
2021/04/26 08:33:40;;;;;;;1.98;0.55;;;21.00;43.80;;;;;;6244797;28;20156;-69
2021/04/26 08:36:42;;;;;;;3.92;0.52;;;21.00;43.80;;;;;;6239360;28;20041;-71
2021/04/26 08:39:43;;;;;;;1.40;0.60;;;21.10;43.90;;;;;;6235940;28;20053;-71
2021/04/26 08:42:43;;;;;;;3.22;0.47;;;21.00;43.90;;;;;;6239065;28;20024;-69
2021/04/26 08:45:44;;;;;;;3.55;0.50;;;21.00;43.90;;;;;;6242011;28;20079;-69
2021/04/26 08:48:45;;;;;;;9.07;0.43;;;21.10;43.70;;;;;;6241943;28;20483;-69
2021/04/26 08:51:46;;;;;;;4.97;0.70;;;21.00;43.80;;;;;;6245937;28;20545;-69
2021/04/26 08:54:47;;;;;;;7.57;0.82;;;21.00;43.80;;;;;;6243709;28;20131;-69
2021/04/26 08:57:49;;;;;;;1.90;0.40;;;21.10;43.70;;;;;;6256014;28;20037;-71
2021/04/26 09:00:50;;;;;;;7.10;0.60;;;21.10;43.60;;;;;;6241440;28;20029;-71
2021/04/26 09:03:51;;;;;;;1.95;0.38;;;21.00;43.50;;;;;;6236633;28;20040;-71
2021/04/26 09:07:00;;;;;;;2.72;0.60;;;21.00;43.60;;;;;;6243605;28;20029;-69
2021/04/26 09:10:01;;;;;;;1.13;0.50;;;21.10;43.70;;;;;;6238066;28;20032;-69
2021/04/26 09:13:23;;;;;;;2.63;0.60;;;21.00;43.60;;;;;;6246290;28;20416;-69
2021/04/26 09:16:30;;;;;;;1.45;0.63;;;21.00;43.60;;;;;;6246837;28;20402;-69
2021/04/26 09:19:30;;;;;;;2.80;0.50;;;21.00;41.50;;;;;;6266886;28;20246;-69
2021/04/26 09:22:48;;;;;;;2.33;0.50;;;21.00;39.50;;;;;;6243591;28;20040;-69
2021/04/26 09:25:49;;;;;;;5.22;0.90;;;21.10;40.60;;;;;;6237958;28;20055;-71
2021/04/26 09:29:22;;;;;;;1.10;0.52;;;21.00;40.50;;;;;;6256418;28;20060;-71
2021/04/26 09:32:23;;;;;;;1.80;0.50;;;21.00;40.80;;;;;;6256612;28;20036;-71
2021/04/26 09:35:26;;;;;;;2.28;0.73;;;21.00;41.10;;;;;;6234767;28;20050;-71
2021/04/26 09:38:30;;;;;;;3.47;0.40;;;21.00;41.30;;;;;;6248468;28;20095;-71
2021/04/26 09:41:32;;;;;;;2.60;0.50;;;21.00;41.40;;;;;;6238402;28;20120;-71
2021/04/26 09:44:33;;;;;;;2.33;0.50;;;21.00;41.40;;;;;;6227999;28;20045;-71
2021/04/26 09:47:33;;;;;;;1.27;0.40;;;21.00;41.80;;;;;;6239531;28;20033;-71
2021/04/26 09:50:48;;;;;;;2.15;0.45;;;21.00;41.90;;;;;;6224173;28;20036;-71
2021/04/26 09:53:55;;;;;;;4.57;0.80;;;21.00;42.00;;;;;;6241196;28;20029;-71
2021/04/26 09:56:56;;;;;;;1.05;0.47;;;21.00;42.40;;;;;;6230101;28;20045;-71
2021/04/26 09:59:57;;;;;;;3.80;0.50;;;21.00;42.40;;;;;;6226959;28;20030;-71
2021/04/26 10:02:58;;;;;;;1.23;0.50;;;21.00;42.40;;;;;;6218903;28;20034;-71
2021/04/26 10:05:59;;;;;;;1.17;0.50;;;21.00;42.50;;;;;;6231776;28;20026;-71
2021/04/26 10:09:06;;;;;;;0.93;0.40;;;21.00;42.50;;;;;;6237201;28;20064;-71
2021/04/26 10:12:09;;;;;;;1.67;0.57;;;21.00;42.60;;;;;;6243940;28;20025;-71
2021/04/26 10:15:11;;;;;;;2.38;0.60;;;21.00;42.70;;;;;;6218723;28;20469;-70
2021/04/26 10:18:14;;;;;;;2.70;0.55;;;21.00;42.50;;;;;;6237278;28;20068;-69
2021/04/26 10:21:17;;;;;;;2.05;0.50;;;21.00;42.80;;;;;;6231737;28;20030;-70
2021/04/26 10:24:21;;;;;;;2.10;0.60;;;21.00;42.70;;;;;;6242156;28;20033;-71
2021/04/26 10:27:30;;;;;;;4.88;0.65;;;21.00;42.70;;;;;;6243544;28;20030;-71
2021/04/26 10:30:30;;;;;;;2.58;0.50;;;21.00;42.80;;;;;;6219212;28;20415;-71
2021/04/26 10:33:57;;;;;;;1.13;0.30;;;21.00;42.90;;;;;;6232651;28;20037;-71
2021/04/26 10:37:01;;;;;;;4.30;0.60;;;21.00;42.60;;;;;;6228944;28;20037;-71
2021/04/26 10:40:08;;;;;;;8.10;0.80;;;21.00;42.70;;;;;;6237032;28;20455;-72
2021/04/26 10:43:26;;;;;;;7.25;0.70;;;21.00;43.10;;;;;;6238082;28;20056;-71
2021/04/26 10:46:27;;;;;;;17.48;0.70;;;21.00;43.40;;;;;;6234666;28;20037;-70
2021/04/26 10:49:27;;;;;;;10.25;0.70;;;21.10;43.60;;;;;;6245319;28;20044;-69
2021/04/26 10:55:34;;;;;;;5.20;0.90;;;21.00;43.40;;;;;;6243861;28;20163;-70
2021/04/26 10:58:39;;;;;;;5.63;0.50;;;21.10;43.50;;;;;;6247494;28;20029;-69
2021/04/26 11:01:53;;;;;;;2.78;0.50;;;21.00;43.40;;;;;;6247646;28;20101;-69
2021/04/26 11:05:24;;;;;;;2.63;0.65;;;21.10;43.40;;;;;;6244563;28;20119;-70
2021/04/26 11:11:44;;;;;;;5.25;0.60;;;21.00;43.40;;;;;;6237703;28;20463;-72
2021/04/26 11:14:45;;;;;;;2.75;0.68;;;21.00;43.30;;;;;;6225100;28;20476;-69
2021/04/26 11:17:47;;;;;;;5.97;1.10;;;21.00;43.30;;;;;;6246175;28;20032;-69
2021/04/26 11:20:48;;;;;;;5.97;0.57;;;21.10;43.40;;;;;;6223102;28;20396;-70
2021/04/26 11:23:52;;;;;;;2.95;0.60;;;21.00;43.40;;;;;;6235338;28;20057;-70
2021/04/26 11:27:08;;;;;;;4.55;0.40;;;21.00;43.30;;;;;;6227535;28;20148;-72
2021/04/26 11:30:08;;;;;;;1.65;0.40;;;21.10;43.40;;;;;;6245157;28;20152;-71
2021/04/26 11:33:12;;;;;;;4.65;0.57;;;21.00;43.40;;;;;;6246502;28;20044;-71
2021/04/26 11:36:14;;;;;;;4.28;0.50;;;21.10;43.50;;;;;;6240293;28;20033;-72
2021/04/26 11:39:15;;;;;;;3.63;0.65;;;21.10;43.40;;;;;;6239624;28;20029;-71
2021/04/26 11:42:42;;;;;;;2.00;0.60;;;21.10;43.30;;;;;;6225508;28;20484;-72
2021/04/26 11:45:46;;;;;;;5.22;0.80;;;21.10;43.40;;;;;;6220092;28;20042;-69
2021/04/26 11:48:46;;;;;;;4.87;0.60;;;21.10;43.40;;;;;;6232116;28;20029;-72
2021/04/26 11:51:49;;;;;;;1.02;0.50;;;21.10;43.60;;;;;;6236268;28;20105;-72
2021/04/26 11:54:53;;;;;;;2.72;0.60;;;21.10;43.80;;;;;;6228488;28;20134;-72
2021/04/26 11:57:56;;;;;;;3.50;0.50;;;21.10;44.00;;;;;;6228007;28;20033;-72
2021/04/26 12:01:07;;;;;;;0.82;0.40;;;21.10;44.10;;;;;;6237385;28;20408;-70
2021/04/26 12:04:08;;;;;;;2.00;0.60;;;21.10;44.10;;;;;;6246718;28;20484;-72
2021/04/26 12:07:10;;;;;;;1.48;0.40;;;21.10;44.10;;;;;;6232336;28;20436;-72
2021/04/26 12:10:14;;;;;;;2.25;0.50;;;21.10;44.10;;;;;;6247626;28;20033;-69
2021/04/26 12:13:15;;;;;;;1.33;0.50;;;21.10;44.10;;;;;;6229359;28;20034;-69
2021/04/26 12:16:25;;;;;;;3.58;0.50;;;21.10;44.00;;;;;;6240913;28;20037;-70
2021/04/26 12:19:33;;;;;;;1.67;0.50;;;21.10;44.00;;;;;;6246438;28;20435;-69
2021/04/26 12:22:34;;;;;;;1.80;0.40;;;21.10;44.00;;;;;;6233787;28;20388;-70
2021/04/26 12:25:37;;;;;;;2.83;0.88;;;21.10;43.90;;;;;;6221801;28;20045;-69
2021/04/26 12:28:42;;;;;;;2.10;0.50;;;21.10;43.70;;;;;;6238768;28;20038;-68
2021/04/26 12:31:44;;;;;;;1.98;0.60;;;21.10;43.80;;;;;;6238845;28;20029;-69
2021/04/26 12:34:53;;;;;;;6.00;0.52;;;21.10;43.50;;;;;;6233481;28;20049;-68
2021/04/26 12:37:55;;;;;;;2.35;0.68;;;21.20;43.60;;;;;;6231622;28;20117;-71
2021/04/26 12:40:59;;;;;;;3.30;0.57;;;21.20;43.30;;;;;;6237741;28;20032;-71
2021/04/26 12:44:05;;;;;;;4.25;0.57;;;21.20;43.60;;;;;;6242041;28;20553;-71
2021/04/26 12:47:24;;;;;;;0.93;0.47;;;21.20;43.50;;;;;;6239258;28;20369;-71
2021/04/26 12:50:36;;;;;;;4.55;0.55;;;21.20;43.40;;;;;;6234759;28;20120;-70
2021/04/26 12:53:39;;;;;;;1.75;0.45;;;21.20;43.50;;;;;;6232946;28;20030;-71
2021/04/26 12:56:56;;;;;;;1.05;0.70;;;21.20;43.60;;;;;;6226553;28;20037;-69
2021/04/26 12:59:57;;;;;;;2.75;0.40;;;21.10;43.50;;;;;;6239716;28;20549;-68
2021/04/26 13:03:28;;;;;;;1.95;0.65;;;21.20;43.60;;;;;;6230448;28;20105;-69
2021/04/26 13:06:43;;;;;;;1.00;0.32;;;21.10;43.60;;;;;;6224969;28;20030;-68
2021/04/26 13:09:43;;;;;;;1.13;0.47;;;21.20;43.70;;;;;;6229797;28;20030;-69
2021/04/26 13:12:44;;;;;;;6.28;0.50;;;21.20;43.70;;;;;;6223842;28;20057;-69
2021/04/26 13:15:46;;;;;;;1.02;0.50;;;21.10;43.60;;;;;;6225377;28;20468;-69
2021/04/26 13:18:52;;;;;;;2.20;0.43;;;21.20;43.80;;;;;;6219896;28;20080;-69
2021/04/26 13:21:53;;;;;;;1.63;0.57;;;21.10;43.60;;;;;;6241380;28;20044;-69
2021/04/26 13:24:58;;;;;;;0.85;0.60;;;21.10;43.70;;;;;;6242209;28;20435;-69
2021/04/26 13:27:58;;;;;;;1.00;0.40;;;21.10;43.80;;;;;;6225489;28;20029;-69
2021/04/26 13:31:02;;;;;;;1.13;0.60;;;21.10;43.80;;;;;;6242641;28;20561;-69
2021/04/26 13:34:03;;;;;;;1.25;0.40;;;21.10;43.80;;;;;;6231584;28;20103;-69
2021/04/26 13:37:04;;;;;;;1.15;0.40;;;21.10;43.70;;;;;;6244451;28;20080;-69
2021/04/26 13:40:05;;;;;;;0.50;0.40;;;21.10;43.70;;;;;;6220162;28;20037;-69
2021/04/26 13:43:06;;;;;;;1.38;0.55;;;21.10;43.70;;;;;;6236914;28;20399;-69
2021/04/26 13:46:07;;;;;;;2.05;0.40;;;21.10;43.80;;;;;;6229074;28;20034;-69
2021/04/26 13:49:08;;;;;;;1.33;0.43;;;21.10;43.70;;;;;;6228997;28;20036;-69
2021/04/26 13:52:08;;;;;;;0.68;0.50;;;21.20;43.90;;;;;;6236178;28;20025;-69
2021/04/26 13:55:09;;;;;;;1.23;0.40;;;21.20;44.00;;;;;;6241246;28;20064;-69
2021/04/26 13:58:10;;;;;;;0.57;0.30;;;21.10;43.80;;;;;;6231973;28;20065;-69
2021/04/26 14:01:11;;;;;;;0.88;0.40;;;21.10;43.90;;;;;;6225700;28;20036;-69
2021/04/26 14:04:12;;;;;;;0.70;0.40;;;21.10;43.80;;;;;;6226526;28;20029;-69
2021/04/26 14:07:12;;;;;;;0.77;0.43;;;21.10;43.80;;;;;;6243818;28;20029;-69
2021/04/26 14:10:13;;;;;;;0.50;0.40;;;21.20;44.10;;;;;;6224228;28;20076;-69
2021/04/26 14:13:14;;;;;;;1.00;0.57;;;21.20;44.10;;;;;;6234511;28;20082;-68
2021/04/26 14:16:14;;;;;;;0.32;0.30;;;21.10;44.00;;;;;;6221136;28;20038;-69
2021/04/26 14:19:15;;;;;;;0.60;0.30;;;21.10;44.00;;;;;;6226309;28;20112;-69
2021/04/26 14:22:18;;;;;;;0.40;0.40;;;21.20;44.10;;;;;;6230061;28;20511;-69
2021/04/26 14:25:18;;;;;;;0.77;0.28;;;21.10;44.60;;;;;;6222989;28;20105;-69
2021/04/26 14:28:19;;;;;;;0.40;0.30;;;21.20;44.10;;;;;;6225125;28;20095;-68
2021/04/26 14:31:19;;;;;;;2.30;0.93;;;21.10;44.30;;;;;;6220773;28;20329;-69
2021/04/26 14:34:20;;;;;;;21.08;10.23;;;21.20;45.00;;;;;;6236767;28;20725;-69
2021/04/26 14:37:20;;;;;;;42.33;17.30;;;21.20;45.50;;;;;;6243945;28;20038;-69
2021/04/26 14:40:22;;;;;;;34.15;15.90;;;21.20;46.00;;;;;;6234633;28;20480;-69
2021/04/26 14:43:23;;;;;;;34.50;13.23;;;21.20;46.10;;;;;;6236416;28;20565;-69
2021/04/26 14:46:23;;;;;;;25.73;10.23;;;21.20;46.20;;;;;;6221534;28;20089;-69
2021/04/26 14:49:24;;;;;;;23.30;9.32;;;21.10;45.90;;;;;;6222852;28;20080;-69
2021/04/26 14:52:24;;;;;;;19.45;7.95;;;21.10;45.90;;;;;;6241764;28;20057;-69
2021/04/26 14:55:25;;;;;;;27.90;7.00;;;21.20;45.70;;;;;;6226251;28;20478;-69
2021/04/26 14:58:25;;;;;;;14.88;6.20;;;21.20;45.60;;;;;;6234259;28;20563;-69
2021/04/26 15:01:26;;;;;;;14.80;6.40;;;21.20;45.40;;;;;;6219515;28;20384;-69
2021/04/26 15:04:27;;;;;;;19.40;7.05;;;21.20;45.30;;;;;;6232422;28;20037;-68
2021/04/26 15:07:28;;;;;;;15.18;5.82;;;21.20;45.20;;;;;;6243293;28;20029;-69
2021/04/26 15:10:29;;;;;;;17.33;5.65;;;21.20;45.10;;;;;;6234314;28;20064;-69
2021/04/26 15:13:29;;;;;;;10.18;4.88;;;21.20;45.10;;;;;;6243350;28;20026;-69
2021/04/26 15:16:30;;;;;;;10.15;4.32;;;21.20;45.10;;;;;;6219934;28;20488;-69
2021/04/26 15:19:30;;;;;;;10.70;4.75;;;21.20;45.10;;;;;;6236726;28;20029;-69
2021/04/26 15:22:31;;;;;;;11.05;4.13;;;21.20;45.00;;;;;;6244314;28;20029;-69
2021/04/26 15:25:35;;;;;;;16.48;4.60;;;21.20;45.00;;;;;;6234059;28;20531;-69
2021/04/26 15:28:36;;;;;;;13.65;4.95;;;21.20;44.90;;;;;;6232537;28;20033;-69
2021/04/26 15:31:37;;;;;;;14.27;4.22;;;21.20;45.00;;;;;;6235209;28;20051;-69
2021/04/26 15:34:39;;;;;;;19.85;5.05;;;21.20;45.00;;;;;;6241402;28;20057;-69
2021/04/26 15:37:40;;;;;;;9.10;4.00;;;21.20;45.00;;;;;;6238373;28;20310;-69
2021/04/26 15:40:41;;;;;;;9.95;4.10;;;21.20;45.00;;;;;;6222485;28;20045;-69
2021/04/26 15:43:43;;;;;;;8.52;4.07;;;21.20;44.90;;;;;;6229453;28;20029;-68
2021/04/26 15:46:43;;;;;;;11.77;3.80;;;21.20;44.90;;;;;;6239186;28;20029;-68
2021/04/26 15:49:44;;;;;;;10.05;3.95;;;21.20;44.90;;;;;;6231720;28;20056;-69
2021/04/26 15:52:44;;;;;;;13.10;4.25;;;21.20;44.90;;;;;;6240711;28;20040;-69
2021/04/26 15:55:47;;;;;;;11.75;3.95;;;21.20;45.00;;;;;;6226024;28;20649;-69
2021/04/26 15:58:47;;;;;;;12.35;3.47;;;21.20;44.90;;;;;;6221958;28;20100;-69
2021/04/26 16:01:48;;;;;;;17.15;3.30;;;21.20;44.70;;;;;;6232944;28;20029;-69
2021/04/26 16:04:49;;;;;;;23.85;4.45;;;21.20;44.80;;;;;;6231866;28;20484;-70